Calingasta, Argentina
Current Conditions -  °F | °C
As of 9:00 PM on Saturday 22 Nov 2014 (Local Time) from SAME Reporting Station
Clear Clear  
Wind Chill: 77°   Ceiling: Unl
Heat Index: 78°   Visibility: 6mi
Dew Point: 41°   Wind: 3mph
Humidity: 28%   Direction: 360°N
Pressure: 29.8"   Gusts: NA
Location:  31.32°S, 69.42°W
Report Text: SAME 230000Z 36003KT CAVOK 25/05 Q1009
Loading
Personal Weather Stations






























Interactive Weather Map New forecast layout! Learn more

10-Day Weather Forecast

Advertisements
Track Severe Weather on mobile